Time;durP1;ratioP1;P1;durP2;ratioP2;P2;SDS_P1;SDS_P2;PMS_P1;PMS_P2;Temp;Humidity;BMP_temperature;BMP_pressure;BME280_temperature;BME280_humidity;BME280_pressure;Samples;Min_cycle;Max_cycle;Signal;HPM_P1;HPM_P2
2022/11/08 00:01:42;;;;;;;6.43;2.80;;;12.30;99.90;;;;;;5094849;28;20535;-66
2022/11/08 00:04:11;;;;;;;3.83;2.20;;;12.30;99.90;;;;;;5094685;28;20465;-67
2022/11/08 00:14:53;;;;;;;4.90;3.10;;;12.30;99.90;;;;;;5094461;28;20425;-67
2022/11/08 00:17:21;;;;;;;4.77;2.70;;;12.20;99.90;;;;;;5094108;28;20512;-67
2022/11/08 00:19:48;;;;;;;4.40;2.57;;;12.20;99.90;;;;;;5094305;28;20522;-67
2022/11/08 00:22:16;;;;;;;5.50;2.80;;;12.20;99.90;;;;;;5094748;28;20476;-66
2022/11/08 00:24:43;;;;;;;10.17;2.60;;;12.20;99.90;;;;;;5095444;28;20819;-67
2022/11/08 00:27:13;;;;;;;5.70;2.53;;;12.20;99.90;;;;;;5098416;28;20540;-66
2022/11/08 00:29:40;;;;;;;4.17;2.57;;;12.10;99.90;;;;;;5098195;28;20544;-67
2022/11/08 00:32:11;;;;;;;6.27;2.70;;;12.10;99.90;;;;;;5100699;28;20461;-66
2022/11/08 00:34:38;;;;;;;5.80;2.40;;;12.10;99.90;;;;;;5098600;28;20480;-67
2022/11/08 00:37:05;;;;;;;3.43;2.10;;;12.10;99.90;;;;;;5097807;28;20535;-67
2022/11/08 00:39:32;;;;;;;5.90;2.90;;;12.10;99.90;;;;;;5097808;28;20995;-67
2022/11/08 00:41:59;;;;;;;5.43;2.47;;;12.10;99.90;;;;;;5097752;28;20518;-66
2022/11/08 00:44:26;;;;;;;3.90;2.60;;;12.00;99.90;;;;;;5098100;28;20552;-67
2022/11/08 00:46:53;;;;;;;5.23;2.40;;;12.10;99.90;;;;;;5098207;28;20904;-67
2022/11/08 00:49:22;;;;;;;6.10;2.30;;;12.00;99.90;;;;;;5098600;28;20913;-66
2022/11/08 00:51:49;;;;;;;4.33;2.60;;;12.00;99.90;;;;;;5097730;28;20460;-66
2022/11/08 00:54:17;;;;;;;5.53;2.40;;;12.00;99.90;;;;;;5098174;28;20544;-66
2022/11/08 00:56:45;;;;;;;6.10;2.60;;;12.00;99.90;;;;;;5097784;28;20488;-66
2022/11/08 00:59:12;;;;;;;5.37;2.60;;;12.00;99.90;;;;;;5098191;28;20457;-67
2022/11/08 01:01:40;;;;;;;5.73;2.83;;;12.00;99.90;;;;;;5097985;28;20952;-67
2022/11/08 01:04:08;;;;;;;5.57;3.03;;;12.00;99.90;;;;;;5097731;28;20485;-65
2022/11/08 01:06:36;;;;;;;7.33;3.23;;;12.00;99.90;;;;;;5098511;28;20504;-66
2022/11/08 01:09:03;;;;;;;4.50;2.90;;;11.90;99.90;;;;;;5098409;28;20531;-66
2022/11/08 01:11:30;;;;;;;4.70;2.70;;;11.90;99.90;;;;;;5099755;28;20503;-67
2022/11/08 01:13:58;;;;;;;7.93;2.70;;;11.90;99.90;;;;;;5099168;28;20548;-66
2022/11/08 01:16:27;;;;;;;5.30;2.73;;;11.90;99.90;;;;;;5098554;28;20644;-66
2022/11/08 01:18:56;;;;;;;9.30;3.10;;;11.90;99.90;;;;;;5097741;28;20544;-66
2022/11/08 01:21:23;;;;;;;3.83;2.70;;;11.90;99.90;;;;;;5098023;28;20484;-66
2022/11/08 01:23:53;;;;;;;5.30;3.10;;;11.90;99.90;;;;;;5098147;28;20534;-66
2022/11/08 01:26:21;;;;;;;6.20;2.40;;;11.90;99.90;;;;;;5097621;28;21015;-66
2022/11/08 01:28:48;;;;;;;5.43;2.87;;;11.90;99.90;;;;;;5098049;28;20752;-66
2022/11/08 01:31:17;;;;;;;6.27;2.97;;;11.80;99.90;;;;;;5097846;28;21099;-66
2022/11/08 01:33:44;;;;;;;6.33;3.50;;;11.80;99.90;;;;;;5097494;28;20540;-66
2022/11/08 01:36:13;;;;;;;6.57;2.87;;;11.90;99.90;;;;;;5097570;28;20544;-67
2022/11/08 01:38:40;;;;;;;7.23;2.90;;;11.90;99.90;;;;;;5099209;28;20488;-66
2022/11/08 01:41:12;;;;;;;6.00;2.93;;;11.80;99.90;;;;;;5098277;28;20485;-65
2022/11/08 01:43:41;;;;;;;8.00;3.27;;;11.80;99.90;;;;;;5098394;28;20458;-67
2022/11/08 01:46:34;;;;;;;5.57;2.70;;;11.80;99.90;;;;;;5098255;28;20445;-67
2022/11/08 01:49:32;;;;;;;6.03;3.30;;;11.80;99.90;;;;;;5097179;28;20503;-68
2022/11/08 01:52:24;;;;;;;6.50;3.00;;;11.70;99.90;;;;;;5097928;28;20833;-67
2022/11/08 01:55:08;;;;;;;4.30;2.60;;;11.70;99.90;;;;;;5097831;28;20766;-67
2022/11/08 01:57:42;;;;;;;6.60;2.40;;;11.70;99.90;;;;;;5096149;28;20886;-67
2022/11/08 02:00:11;;;;;;;5.60;3.30;;;11.70;99.90;;;;;;5097621;28;20440;-66
2022/11/08 02:02:40;;;;;;;9.33;3.63;;;11.80;99.90;;;;;;5097598;28;20482;-67
2022/11/08 02:05:23;;;;;;;5.80;2.53;;;11.80;99.90;;;;;;5097772;28;20461;-65
2022/11/08 02:07:52;;;;;;;6.63;2.70;;;11.90;99.90;;;;;;5097130;28;20460;-66
2022/11/08 02:10:25;;;;;;;7.20;2.90;;;11.80;99.90;;;;;;5096777;28;20898;-66
2022/11/08 02:12:54;;;;;;;3.70;2.67;;;11.90;99.90;;;;;;5097464;28;20441;-67
2022/11/08 02:15:23;;;;;;;4.77;2.73;;;11.90;99.90;;;;;;5096988;28;20457;-66
2022/11/08 02:17:50;;;;;;;5.47;2.90;;;11.90;99.90;;;;;;5096625;28;20469;-66
2022/11/08 02:20:17;;;;;;;8.47;2.60;;;11.90;99.90;;;;;;5096905;28;20541;-67
2022/11/08 02:22:51;;;;;;;6.03;3.00;;;11.90;99.90;;;;;;5097154;28;20773;-66
2022/11/08 02:25:19;;;;;;;7.10;2.70;;;11.90;99.90;;;;;;5096392;28;20574;-68
2022/11/08 02:27:46;;;;;;;5.17;2.23;;;11.90;99.90;;;;;;5096800;28;20453;-67
2022/11/08 02:30:13;;;;;;;6.70;2.97;;;11.90;99.90;;;;;;5097237;28;20541;-66
2022/11/08 02:32:41;;;;;;;6.10;3.40;;;11.90;99.90;;;;;;5096554;28;20453;-67
2022/11/08 02:35:14;;;;;;;4.73;2.67;;;11.90;99.90;;;;;;5096899;28;20495;-66
2022/11/08 02:37:41;;;;;;;5.03;2.40;;;11.90;99.90;;;;;;5096821;28;20522;-67
2022/11/08 02:40:09;;;;;;;6.60;2.73;;;11.90;99.90;;;;;;5096173;28;20493;-66
2022/11/08 02:42:39;;;;;;;8.90;2.60;;;11.90;99.90;;;;;;5096211;28;20551;-67
2022/11/08 02:45:08;;;;;;;7.13;2.67;;;11.80;99.90;;;;;;5096564;28;20457;-66
2022/11/08 02:47:34;;;;;;;5.10;2.77;;;11.90;99.90;;;;;;5096011;28;20450;-65
2022/11/08 02:50:01;;;;;;;4.27;2.47;;;11.90;99.90;;;;;;5096400;28;20511;-67
2022/11/08 02:52:28;;;;;;;7.17;2.60;;;11.90;99.90;;;;;;5096573;28;20510;-66
2022/11/08 02:54:55;;;;;;;4.67;3.20;;;11.80;99.90;;;;;;5096378;28;20489;-67
2022/11/08 02:57:22;;;;;;;6.50;2.90;;;11.80;99.90;;;;;;5096110;28;20564;-67
2022/11/08 02:59:50;;;;;;;6.00;3.33;;;11.80;99.90;;;;;;5096318;28;20453;-67
2022/11/08 03:02:17;;;;;;;5.33;2.40;;;11.70;99.90;;;;;;5095964;28;20510;-66
2022/11/08 03:04:44;;;;;;;4.80;2.53;;;11.70;99.90;;;;;;5096358;28;20526;-66
2022/11/08 03:07:11;;;;;;;7.80;2.70;;;11.70;99.90;;;;;;5095961;28;20518;-67
2022/11/08 03:09:38;;;;;;;7.87;2.80;;;11.70;99.90;;;;;;5096375;28;20457;-67
2022/11/08 03:12:05;;;;;;;8.83;3.07;;;11.60;99.90;;;;;;5095791;28;20552;-67
2022/11/08 03:14:32;;;;;;;4.63;2.90;;;11.60;99.90;;;;;;5095543;28;20518;-67
2022/11/08 03:17:00;;;;;;;4.90;3.03;;;11.60;99.90;;;;;;5095813;28;20509;-67
2022/11/08 03:19:27;;;;;;;9.03;3.10;;;11.60;99.90;;;;;;5095875;28;20922;-66
2022/11/08 03:21:54;;;;;;;4.93;2.93;;;11.60;99.90;;;;;;5095800;28;20536;-66
2022/11/08 03:24:21;;;;;;;5.33;2.47;;;11.60;99.90;;;;;;5095517;28;20540;-67
2022/11/08 03:26:48;;;;;;;4.93;3.00;;;11.70;99.90;;;;;;5095116;28;20510;-67
2022/11/08 03:29:15;;;;;;;3.80;2.80;;;11.70;99.90;;;;;;5095206;28;20837;-67
2022/11/08 03:31:42;;;;;;;4.30;2.97;;;11.70;99.90;;;;;;5095355;28;20457;-67
2022/11/08 03:34:11;;;;;;;4.90;2.70;;;11.70;99.90;;;;;;5095476;28;20457;-67
2022/11/08 03:36:38;;;;;;;4.67;2.40;;;11.70;99.90;;;;;;5095249;28;20511;-66
2022/11/08 03:39:04;;;;;;;6.60;2.87;;;11.70;99.90;;;;;;5095401;28;20941;-68
2022/11/08 03:41:31;;;;;;;8.63;3.00;;;11.80;99.90;;;;;;5095775;28;20457;-67
2022/11/08 03:43:58;;;;;;;4.83;2.13;;;11.80;99.90;;;;;;5096472;28;20531;-67
2022/11/08 03:46:25;;;;;;;5.90;2.50;;;11.80;99.90;;;;;;5096227;28;20493;-67
2022/11/08 03:48:52;;;;;;;3.63;2.70;;;11.80;99.90;;;;;;5096846;28;20449;-67
2022/11/08 03:51:20;;;;;;;6.80;3.20;;;11.80;99.90;;;;;;5096061;28;20536;-67
2022/11/08 03:53:47;;;;;;;2.73;2.50;;;11.70;99.90;;;;;;5095506;28;20545;-67
2022/11/08 03:56:14;;;;;;;6.97;3.07;;;11.70;99.90;;;;;;5096113;28;20457;-67
2022/11/08 03:58:41;;;;;;;7.07;2.80;;;11.70;99.90;;;;;;5096857;28;20565;-66
2022/11/08 04:01:08;;;;;;;7.63;3.33;;;11.60;99.90;;;;;;5100648;28;20821;-66
2022/11/08 04:03:35;;;;;;;4.47;2.70;;;11.60;99.90;;;;;;5100275;28;20457;-66
2022/11/08 04:06:03;;;;;;;9.83;3.37;;;11.50;99.90;;;;;;5099750;28;20541;-66
2022/11/08 04:08:31;;;;;;;5.87;3.00;;;11.50;99.90;;;;;;5099880;28;20860;-66
2022/11/08 04:15:13;;;;;;;8.77;3.00;;;11.50;99.90;;;;;;5100408;28;20540;-67
2022/11/08 04:16:32;;;;;;;5.10;3.30;;;11.50;99.90;;;;;;5099692;28;20424;-66
2022/11/08 04:21:45;;;;;;;7.33;2.90;;;11.40;99.90;;;;;;5100325;28;20540;-67
2022/11/08 04:24:14;;;;;;;7.00;3.10;;;11.40;99.90;;;;;;5100565;28;20457;-66
2022/11/08 04:26:41;;;;;;;5.43;2.90;;;11.30;99.90;;;;;;5100141;28;20478;-67
2022/11/08 04:29:09;;;;;;;8.37;3.50;;;11.30;99.90;;;;;;5099089;28;20612;-67
2022/11/08 04:31:36;;;;;;;4.30;2.53;;;11.30;99.90;;;;;;5099414;28;20540;-67
2022/11/08 04:34:04;;;;;;;5.33;3.00;;;11.30;99.90;;;;;;5099170;28;20495;-67
2022/11/08 04:36:30;;;;;;;5.03;2.90;;;11.20;99.90;;;;;;5099240;28;20514;-67
2022/11/08 04:38:57;;;;;;;7.30;3.17;;;11.20;99.90;;;;;;5099521;28;20574;-67
2022/11/08 04:41:27;;;;;;;6.27;3.47;;;11.20;99.90;;;;;;5099524;28;20453;-66
2022/11/08 04:43:55;;;;;;;5.13;3.40;;;11.20;99.90;;;;;;5098535;28;20457;-66
2022/11/08 04:46:24;;;;;;;6.17;3.20;;;11.20;99.90;;;;;;5099001;28;20485;-66
2022/11/08 04:48:52;;;;;;;6.60;3.23;;;11.20;99.90;;;;;;5098898;28;20511;-67
2022/11/08 04:51:21;;;;;;;6.00;3.33;;;11.20;99.90;;;;;;5099019;28;20465;-67
2022/11/08 04:53:49;;;;;;;5.57;3.20;;;11.10;99.90;;;;;;5099409;28;20453;-68
2022/11/08 04:56:18;;;;;;;5.37;3.30;;;11.10;99.90;;;;;;5098401;28;20499;-66
2022/11/08 04:58:48;;;;;;;5.03;3.37;;;11.10;99.90;;;;;;5098632;28;20511;-66
2022/11/08 05:01:18;;;;;;;5.53;3.47;;;11.10;99.90;;;;;;5098697;28;20533;-66
2022/11/08 05:03:46;;;;;;;7.20;3.57;;;11.10;99.90;;;;;;5098602;28;20542;-67
2022/11/08 05:06:15;;;;;;;5.20;3.23;;;11.00;99.90;;;;;;5098507;28;20457;-67
2022/11/08 05:08:43;;;;;;;5.03;3.23;;;11.00;99.90;;;;;;5098097;28;20541;-67
2022/11/08 05:11:11;;;;;;;5.17;3.60;;;10.90;99.90;;;;;;5097524;28;20461;-66
2022/11/08 05:13:39;;;;;;;7.03;3.90;;;10.90;99.90;;;;;;5098322;28;20457;-67
2022/11/08 05:16:10;;;;;;;4.90;3.47;;;10.90;99.90;;;;;;5098358;28;20546;-67
2022/11/08 05:18:37;;;;;;;6.23;2.97;;;10.90;99.90;;;;;;5098134;28;20479;-66
2022/11/08 05:23:50;;;;;;;9.13;3.70;;;10.80;99.90;;;;;;5098086;28;20809;-67
2022/11/08 05:26:19;;;;;;;6.77;3.10;;;10.80;99.90;;;;;;5097984;28;20542;-68
2022/11/08 05:28:46;;;;;;;11.77;3.90;;;10.80;99.90;;;;;;5097727;28;20592;-67
2022/11/08 05:31:15;;;;;;;5.40;3.47;;;10.80;99.90;;;;;;5098021;28;20453;-66
2022/11/08 05:33:42;;;;;;;10.40;3.33;;;10.80;99.90;;;;;;5097744;28;20453;-66
2022/11/08 05:36:11;;;;;;;6.90;3.73;;;10.80;99.90;;;;;;5097969;28;20553;-67
2022/11/08 05:38:38;;;;;;;6.73;3.90;;;10.70;99.90;;;;;;5098053;28;20488;-67
2022/11/08 05:41:07;;;;;;;6.10;4.03;;;10.70;99.90;;;;;;5098077;28;20510;-66
2022/11/08 05:43:34;;;;;;;5.33;4.13;;;10.70;99.90;;;;;;5098192;28;20504;-67
2022/11/08 05:46:01;;;;;;;6.87;4.03;;;10.70;99.90;;;;;;5097672;28;20532;-67
2022/11/08 05:48:29;;;;;;;15.30;4.73;;;10.60;99.90;;;;;;5097226;28;20522;-67
2022/11/08 05:50:56;;;;;;;8.17;3.87;;;10.50;99.90;;;;;;5097458;28;20477;-68
2022/11/08 05:53:23;;;;;;;3.90;3.53;;;10.60;99.90;;;;;;5097679;28;20493;-66
2022/11/08 05:55:50;;;;;;;5.77;4.40;;;10.50;99.90;;;;;;5098238;28;20465;-67
2022/11/08 05:58:17;;;;;;;11.20;4.87;;;10.50;99.90;;;;;;5097632;28;20516;-67
2022/11/08 06:00:44;;;;;;;6.03;3.90;;;10.50;99.90;;;;;;5098345;28;20457;-66
2022/11/08 06:03:11;;;;;;;8.77;5.20;;;10.50;99.90;;;;;;5097482;28;20526;-67
2022/11/08 06:05:39;;;;;;;7.40;5.47;;;10.50;99.90;;;;;;5097604;28;20497;-68
2022/11/08 06:08:06;;;;;;;5.47;4.20;;;10.50;99.90;;;;;;5097492;28;20473;-68
2022/11/08 06:10:33;;;;;;;11.63;4.60;;;10.50;99.90;;;;;;5098226;28;20832;-67
2022/11/08 06:13:00;;;;;;;12.33;4.63;;;10.50;99.90;;;;;;5097334;28;20482;-66
2022/11/08 06:15:28;;;;;;;15.93;4.40;;;10.50;99.90;;;;;;5097196;28;20540;-67
2022/11/08 06:17:55;;;;;;;9.90;4.70;;;10.50;99.90;;;;;;5097023;28;20564;-68
2022/11/08 06:20:22;;;;;;;6.03;4.20;;;10.40;99.90;;;;;;5097248;28;20510;-68
2022/11/08 06:22:50;;;;;;;11.63;4.63;;;10.40;99.90;;;;;;5097230;28;20457;-69
2022/11/08 06:25:17;;;;;;;10.60;6.30;;;10.40;99.90;;;;;;5096832;28;20513;-66
2022/11/08 06:27:44;;;;;;;7.07;4.90;;;10.40;99.90;;;;;;5096710;28;20487;-67
2022/11/08 06:30:12;;;;;;;9.57;4.50;;;10.30;99.90;;;;;;5096745;28;20528;-67
2022/11/08 06:32:39;;;;;;;8.47;4.53;;;10.30;99.90;;;;;;5096990;28;20486;-67
2022/11/08 06:35:06;;;;;;;7.30;4.60;;;10.20;99.90;;;;;;5096888;28;20786;-68
2022/11/08 06:37:33;;;;;;;7.43;4.90;;;10.20;99.90;;;;;;5096774;28;20950;-68
2022/11/08 06:40:02;;;;;;;8.27;4.67;;;10.20;99.90;;;;;;5096228;28;20537;-66
2022/11/08 06:42:29;;;;;;;9.50;4.77;;;10.10;99.90;;;;;;5096510;28;20457;-67
2022/11/08 06:44:55;;;;;;;9.20;4.90;;;10.10;99.90;;;;;;5096490;28;20976;-67
2022/11/08 06:47:22;;;;;;;7.60;4.80;;;10.10;99.90;;;;;;5096644;28;20491;-67
2022/11/08 06:49:49;;;;;;;8.07;4.90;;;10.10;99.90;;;;;;5096561;28;20537;-67
2022/11/08 06:52:16;;;;;;;8.10;4.70;;;10.10;99.90;;;;;;5095847;28;20764;-66
2022/11/08 06:54:43;;;;;;;13.00;5.57;;;10.10;99.90;;;;;;5096308;28;20512;-67
2022/11/08 06:57:11;;;;;;;5.50;4.80;;;10.10;99.90;;;;;;5095979;28;20578;-67
2022/11/08 06:59:38;;;;;;;8.90;5.17;;;10.10;99.90;;;;;;5095824;28;20477;-66
2022/11/08 07:02:06;;;;;;;8.90;5.00;;;10.10;99.90;;;;;;5096265;28;20789;-67
2022/11/08 07:04:33;;;;;;;10.23;5.27;;;10.20;99.90;;;;;;5096095;28;20516;-67
2022/11/08 07:07:00;;;;;;;11.80;5.57;;;10.20;99.90;;;;;;5096310;28;20492;-67
2022/11/08 07:09:27;;;;;;;7.90;5.63;;;10.20;99.90;;;;;;5096484;28;20822;-67
2022/11/08 07:11:53;;;;;;;11.00;4.70;;;10.30;99.90;;;;;;5096533;28;20500;-67
2022/11/08 07:14:22;;;;;;;9.10;5.20;;;10.20;99.90;;;;;;5095716;28;20457;-67
2022/11/08 07:16:49;;;;;;;8.10;4.80;;;10.30;99.90;;;;;;5096020;28;20522;-67
2022/11/08 07:19:16;;;;;;;6.30;5.20;;;10.30;99.90;;;;;;5096255;28;20473;-66
2022/11/08 07:21:43;;;;;;;21.67;5.07;;;10.30;99.90;;;;;;5095502;28;20505;-67
2022/11/08 07:24:10;;;;;;;12.47;5.43;;;10.30;99.90;;;;;;5096257;28;20496;-66
2022/11/08 07:26:37;;;;;;;9.63;5.30;;;10.40;99.90;;;;;;5095967;28;20449;-65
2022/11/08 07:29:04;;;;;;;8.47;5.13;;;10.40;99.90;;;;;;5095829;28;20477;-67
2022/11/08 07:31:32;;;;;;;7.00;5.40;;;10.40;99.90;;;;;;5096176;28;20924;-68
2022/11/08 07:33:59;;;;;;;8.87;4.87;;;10.40;99.90;;;;;;5096135;28;20449;-67
2022/11/08 07:36:26;;;;;;;10.50;6.00;;;10.40;99.90;;;;;;5097023;28;20445;-66
2022/11/08 07:38:53;;;;;;;5.97;4.57;;;10.50;99.90;;;;;;5097196;28;20477;-67
2022/11/08 07:41:20;;;;;;;10.03;6.00;;;10.50;99.90;;;;;;5095865;28;20521;-68
2022/11/08 07:43:48;;;;;;;7.50;5.77;;;10.60;99.90;;;;;;5095639;28;20453;-67
2022/11/08 07:46:14;;;;;;;9.40;5.37;;;10.60;99.90;;;;;;5096021;28;20789;-68
2022/11/08 07:48:43;;;;;;;6.50;4.87;;;10.60;99.90;;;;;;5095827;28;20548;-68
2022/11/08 07:51:10;;;;;;;10.63;5.40;;;10.60;99.90;;;;;;5095936;28;20520;-67
2022/11/08 07:53:37;;;;;;;8.00;5.50;;;10.70;99.90;;;;;;5095568;28;20926;-67
2022/11/08 07:56:04;;;;;;;5.80;5.13;;;10.70;99.90;;;;;;5095387;28;20593;-67
2022/11/08 07:58:31;;;;;;;10.63;5.17;;;10.80;99.90;;;;;;5095159;28;20559;-67
2022/11/08 08:01:02;;;;;;;8.03;5.30;;;10.90;99.90;;;;;;5095711;28;20495;-67
2022/11/08 08:03:29;;;;;;;8.73;4.97;;;10.90;99.90;;;;;;5095807;28;20452;-67
2022/11/08 08:05:58;;;;;;;9.60;5.00;;;11.00;99.90;;;;;;5095077;28;20461;-66
2022/11/08 08:08:25;;;;;;;7.80;4.23;;;11.00;99.90;;;;;;5095453;28;20474;-67
2022/11/08 08:10:55;;;;;;;9.83;4.87;;;11.00;99.90;;;;;;5095172;28;20463;-68
2022/11/08 08:13:22;;;;;;;7.60;4.40;;;11.10;99.90;;;;;;5094794;28;20489;-66
2022/11/08 08:15:49;;;;;;;7.33;4.70;;;11.20;99.90;;;;;;5094941;28;20457;-68
2022/11/08 08:18:19;;;;;;;7.57;4.40;;;11.20;99.90;;;;;;5095282;28;20456;-66
2022/11/08 08:20:47;;;;;;;5.63;4.70;;;11.30;99.90;;;;;;5094741;28;20489;-67
2022/11/08 08:23:15;;;;;;;7.00;4.80;;;11.30;99.90;;;;;;5095102;28;20461;-65
2022/11/08 08:25:42;;;;;;;13.90;4.90;;;11.40;99.90;;;;;;5094686;28;20579;-68
2022/11/08 08:28:10;;;;;;;8.60;4.10;;;11.50;99.90;;;;;;5094987;28;20526;-68
2022/11/08 08:30:37;;;;;;;9.13;4.73;;;11.50;99.90;;;;;;5095176;28;20534;-68
2022/11/08 08:33:06;;;;;;;6.57;4.17;;;11.60;99.90;;;;;;5095185;28;20990;-66
2022/11/08 08:35:34;;;;;;;7.07;4.43;;;11.70;99.90;;;;;;5095330;28;20957;-67
2022/11/08 08:38:02;;;;;;;6.57;4.63;;;11.70;99.90;;;;;;5095010;28;20463;-68
2022/11/08 08:40:30;;;;;;;6.30;3.93;;;11.80;99.90;;;;;;5095374;28;20507;-67
2022/11/08 08:42:58;;;;;;;7.77;3.67;;;11.80;99.90;;;;;;5094554;28;20922;-67
2022/11/08 08:45:26;;;;;;;8.13;3.80;;;11.90;99.90;;;;;;5095875;28;20457;-68
2022/11/08 08:47:54;;;;;;;6.13;4.30;;;12.00;99.90;;;;;;5098859;28;20544;-67
2022/11/08 08:50:21;;;;;;;7.57;3.80;;;12.10;99.90;;;;;;5098008;28;20529;-67
2022/11/08 08:52:48;;;;;;;5.87;3.80;;;12.10;99.90;;;;;;5098704;28;20792;-67
2022/11/08 08:55:16;;;;;;;8.50;3.80;;;12.20;99.90;;;;;;5098441;28;20457;-67
2022/11/08 08:57:48;;;;;;;4.90;3.53;;;12.30;99.90;;;;;;5098446;28;20461;-67
2022/11/08 09:00:16;;;;;;;10.87;4.20;;;12.30;99.90;;;;;;5098286;28;20966;-67
2022/11/08 09:02:43;;;;;;;10.13;4.17;;;12.40;99.90;;;;;;5098645;28;20782;-67
2022/11/08 09:05:12;;;;;;;4.67;3.20;;;12.50;99.90;;;;;;5098916;28;20913;-68
2022/11/08 09:07:39;;;;;;;5.37;3.77;;;12.60;99.90;;;;;;5099350;28;20484;-66
2022/11/08 09:10:07;;;;;;;6.43;3.30;;;12.70;99.90;;;;;;5098875;28;20780;-70
2022/11/08 09:12:35;;;;;;;5.20;3.27;;;12.80;99.90;;;;;;5098293;28;20483;-67
2022/11/08 09:15:04;;;;;;;5.13;3.10;;;12.90;99.90;;;;;;5098472;28;20975;-68
2022/11/08 09:17:31;;;;;;;6.63;3.07;;;13.00;99.90;;;;;;5100025;28;20453;-67
2022/11/08 09:19:58;;;;;;;6.87;3.97;;;13.10;99.90;;;;;;5099714;28;20508;-67
2022/11/08 09:22:25;;;;;;;5.30;3.00;;;13.20;99.90;;;;;;5099701;28;20469;-67
2022/11/08 09:24:52;;;;;;;8.70;2.77;;;13.30;99.90;;;;;;5098779;28;20530;-67
2022/11/08 09:27:19;;;;;;;4.93;3.00;;;13.30;99.90;;;;;;5099325;28;20498;-67
2022/11/08 09:29:46;;;;;;;4.53;2.77;;;13.40;99.90;;;;;;5099559;28;20828;-68
2022/11/08 09:32:14;;;;;;;7.37;2.67;;;13.50;99.90;;;;;;5100498;28;20488;-67
2022/11/08 09:34:41;;;;;;;6.83;2.90;;;13.60;99.90;;;;;;5098925;28;20532;-67
2022/11/08 09:37:08;;;;;;;10.63;4.13;;;13.60;99.90;;;;;;5097682;28;20488;-68
2022/11/08 09:39:35;;;;;;;7.70;3.07;;;13.70;99.90;;;;;;5098358;28;20589;-67
2022/11/08 09:42:33;;;;;;;6.70;3.13;;;13.80;99.90;;;;;;5098311;28;20472;-68
2022/11/08 09:45:29;;;;;;;7.10;3.10;;;13.90;99.90;;;;;;5097861;28;20434;-67
2022/11/08 09:48:00;;;;;;;5.10;2.63;;;14.00;99.90;;;;;;5098225;28;20537;-67
2022/11/08 09:50:34;;;;;;;4.67;2.30;;;14.00;99.90;;;;;;5097969;28;20474;-67
2022/11/08 09:53:12;;;;;;;6.77;2.70;;;14.10;99.90;;;;;;5097882;28;20495;-66
2022/11/08 09:55:43;;;;;;;5.43;2.37;;;14.10;99.90;;;;;;5097630;28;20794;-68
2022/11/08 09:58:23;;;;;;;9.43;2.20;;;14.20;99.90;;;;;;5097226;28;20812;-67
2022/11/08 10:00:52;;;;;;;9.03;2.60;;;14.30;99.90;;;;;;5097527;28;20994;-67
2022/11/08 10:03:23;;;;;;;5.57;2.50;;;14.40;99.90;;;;;;5098200;28;20552;-68
2022/11/08 10:06:02;;;;;;;6.23;2.30;;;14.50;99.90;;;;;;5097932;28;20765;-67
2022/11/08 10:08:33;;;;;;;7.13;2.20;;;14.60;99.90;;;;;;5097454;28;20841;-68
2022/11/08 10:11:26;;;;;;;4.47;1.80;;;14.70;99.90;;;;;;5097660;28;20434;-67
2022/11/08 10:14:09;;;;;;;7.63;2.47;;;14.80;99.90;;;;;;5095166;28;20453;-66
2022/11/08 10:16:44;;;;;;;4.23;2.40;;;14.90;99.90;;;;;;5097488;28;20564;-67
2022/11/08 10:19:34;;;;;;;5.00;2.27;;;15.00;99.90;;;;;;5097521;28;20551;-67
2022/11/08 10:22:05;;;;;;;6.43;2.20;;;15.10;99.90;;;;;;5097733;28;20529;-67
2022/11/08 10:24:35;;;;;;;4.53;2.10;;;15.20;99.90;;;;;;5096797;28;20834;-66
2022/11/08 10:27:03;;;;;;;4.67;2.40;;;15.20;99.90;;;;;;5097160;28;20442;-68
2022/11/08 10:29:35;;;;;;;3.53;2.23;;;15.20;99.90;;;;;;5097186;28;20461;-67
2022/11/08 10:32:12;;;;;;;4.77;2.60;;;15.30;99.90;;;;;;5097672;28;20452;-67
2022/11/08 10:34:47;;;;;;;8.47;1.80;;;15.40;99.90;;;;;;5097546;28;20536;-67
2022/11/08 10:37:16;;;;;;;4.17;2.10;;;15.40;99.90;;;;;;5097508;28;20804;-67
2022/11/08 10:39:49;;;;;;;3.60;2.30;;;15.50;99.90;;;;;;5096669;28;20581;-66
2022/11/08 10:42:21;;;;;;;4.20;1.90;;;15.40;99.90;;;;;;5096184;28;20479;-66
2022/11/08 10:44:48;;;;;;;6.40;2.63;;;15.50;99.90;;;;;;5096580;28;20518;-66
2022/11/08 10:47:22;;;;;;;6.87;2.20;;;15.50;99.90;;;;;;5096806;28;20905;-67
2022/11/08 10:49:51;;;;;;;5.57;2.30;;;15.60;99.90;;;;;;5097657;28;20493;-67
2022/11/08 10:52:20;;;;;;;4.53;2.10;;;15.70;99.90;;;;;;5097558;28;20483;-67
2022/11/08 10:54:49;;;;;;;2.57;2.00;;;15.80;99.90;;;;;;5096738;28;20457;-67
2022/11/08 10:57:22;;;;;;;5.63;2.33;;;15.80;99.90;;;;;;5097134;28;20468;-66
2022/11/08 10:59:49;;;;;;;4.50;2.17;;;15.90;99.90;;;;;;5096674;28;20462;-67
2022/11/08 11:02:28;;;;;;;10.53;2.73;;;16.00;99.90;;;;;;5098026;28;20457;-67
2022/11/08 11:05:22;;;;;;;7.30;2.23;;;16.00;99.90;;;;;;5097054;28;20473;-68
2022/11/08 11:07:59;;;;;;;6.07;1.93;;;16.10;99.90;;;;;;5096228;28;20457;-67
2022/11/08 11:10:29;;;;;;;3.70;1.83;;;16.00;99.90;;;;;;5096896;28;20433;-67
2022/11/08 11:13:02;;;;;;;5.50;2.10;;;16.10;99.90;;;;;;5096341;28;20544;-66
2022/11/08 11:15:34;;;;;;;3.90;1.60;;;16.10;99.90;;;;;;5096276;28;20480;-68
2022/11/08 11:18:02;;;;;;;4.60;1.97;;;16.00;99.90;;;;;;5095455;28;20457;-68
2022/11/08 11:20:30;;;;;;;4.30;1.87;;;16.10;99.90;;;;;;5095904;28;20534;-68
2022/11/08 11:22:58;;;;;;;5.10;1.90;;;16.10;99.90;;;;;;5095799;28;20500;-67
2022/11/08 11:25:25;;;;;;;7.50;2.07;;;16.20;99.90;;;;;;5095783;28;20873;-68
2022/11/08 11:27:55;;;;;;;10.00;2.60;;;16.20;99.90;;;;;;5095941;28;20454;-67
2022/11/08 11:30:32;;;;;;;5.30;2.63;;;16.20;99.90;;;;;;5095802;28;20426;-68
2022/11/08 11:33:06;;;;;;;4.30;2.07;;;16.30;99.90;;;;;;5096071;28;20441;-67
2022/11/08 11:35:47;;;;;;;4.10;2.50;;;16.30;99.90;;;;;;5095561;28;20461;-66
2022/11/08 11:38:24;;;;;;;4.60;2.20;;;16.40;99.90;;;;;;5096374;28;20532;-67
2022/11/08 11:40:53;;;;;;;3.80;2.40;;;16.40;99.90;;;;;;5095863;28;20492;-67
2022/11/08 11:43:26;;;;;;;4.67;1.90;;;16.40;99.90;;;;;;5095724;28;20932;-67
2022/11/08 11:45:58;;;;;;;5.67;2.00;;;16.50;99.90;;;;;;5095741;28;20457;-67
2022/11/08 11:48:28;;;;;;;5.67;2.00;;;16.70;99.90;;;;;;5096156;28;20506;-68
2022/11/08 11:50:57;;;;;;;8.50;2.50;;;17.20;99.90;;;;;;5095577;28;20536;-65
2022/11/08 11:53:26;;;;;;;4.17;2.03;;;17.70;99.90;;;;;;5096208;28;20457;-68
2022/11/08 11:56:27;;;;;;;3.63;2.40;;;18.20;99.90;;;;;;5096197;28;20926;-67
2022/11/08 11:59:08;;;;;;;6.60;2.53;;;18.80;99.90;;;;;;5096465;28;20834;-67
2022/11/08 12:01:55;;;;;;;6.10;1.63;;;19.60;99.90;;;;;;5096313;28;20466;-66
2022/11/08 12:04:35;;;;;;;4.47;1.77;;;20.30;99.90;;;;;;5096517;28;20472;-69
2022/11/08 12:07:10;;;;;;;2.70;1.50;;;21.10;99.90;;;;;;5096083;28;20516;-70
2022/11/08 12:09:52;;;;;;;3.23;1.90;;;21.60;99.90;;;;;;5096137;28;20433;-69
2022/11/08 12:12:41;;;;;;;8.40;2.10;;;22.20;99.90;;;;;;5095571;28;20855;-67
2022/11/08 12:15:19;;;;;;;5.80;2.20;;;22.20;99.90;;;;;;5094844;28;20473;-67
2022/11/08 12:18:00;;;;;;;2.67;1.80;;;22.50;99.90;;;;;;5094767;28;20445;-66
2022/11/08 12:20:39;;;;;;;3.37;1.87;;;22.60;99.90;;;;;;5097574;28;20462;-68
2022/11/08 12:23:59;;;;;;;3.50;1.70;;;22.70;99.90;;;;;;5100272;28;20540;-68
2022/11/08 12:26:32;;;;;;;4.90;2.30;;;22.20;99.90;;;;;;5037311;28;20570;-67
2022/11/08 12:29:21;;;;;;;4.30;1.80;;;21.70;99.90;;;;;;5097348;28;20453;-67
2022/11/08 12:32:11;;;;;;;3.50;1.93;;;21.60;99.90;;;;;;5099447;28;20514;-67
2022/11/08 12:34:48;;;;;;;5.30;1.83;;;21.50;99.90;;;;;;5098997;28;20541;-68
2022/11/08 12:37:29;;;;;;;3.67;1.50;;;21.80;99.90;;;;;;5098738;28;20488;-67
2022/11/08 12:40:00;;;;;;;3.00;1.47;;;21.80;99.90;;;;;;5098505;28;20551;-68
2022/11/08 12:42:48;;;;;;;2.87;1.63;;;22.00;99.90;;;;;;5099220;28;20524;-68
2022/11/08 12:45:35;;;;;;;9.57;1.90;;;21.80;99.90;;;;;;5099143;28;20460;-67
2022/11/08 12:48:13;;;;;;;4.07;1.53;;;21.60;99.90;;;;;;5098699;28;20467;-68
2022/11/08 12:50:50;;;;;;;2.97;1.50;;;21.60;99.90;;;;;;5098355;28;20474;-67
2022/11/08 12:53:37;;;;;;;2.80;1.73;;;21.70;99.90;;;;;;5098581;28;20824;-68
2022/11/08 12:56:13;;;;;;;6.30;1.67;;;22.00;99.90;;;;;;5088162;28;20484;-67
2022/11/08 12:58:45;;;;;;;5.10;1.83;;;22.60;99.90;;;;;;5097639;28;20488;-67
2022/11/08 13:01:14;;;;;;;3.07;1.43;;;23.20;99.90;;;;;;5097985;28;20462;-68
2022/11/08 13:04:20;;;;;;;5.80;1.80;;;23.30;99.90;;;;;;5098396;28;20464;-68
2022/11/08 13:06:52;;;;;;;3.50;1.53;;;22.80;99.90;;;;;;5098937;28;20461;-67
2022/11/08 13:09:32;;;;;;;3.90;1.97;;;22.30;99.90;;;;;;5097735;28;20491;-67
2022/11/08 13:12:10;;;;;;;6.43;2.10;;;22.20;99.90;;;;;;5098358;28;20524;-66
2022/11/08 13:14:37;;;;;;;10.33;1.67;;;22.20;99.90;;;;;;5098214;28;20473;-68
2022/11/08 13:17:17;;;;;;;4.07;1.43;;;22.10;99.90;;;;;;5098146;28;20457;-66
2022/11/08 13:20:04;;;;;;;2.80;1.50;;;21.80;99.90;;;;;;5098225;28;20846;-67